Time;durP1;ratioP1;P1;durP2;ratioP2;P2;SDS_P1;SDS_P2;PMS_P1;PMS_P2;Temp;Humidity;BMP_temperature;BMP_pressure;BME280_temperature;BME280_humidity;BME280_pressure;Samples;Min_cycle;Max_cycle;Signal;HPM_P1;HPM_P2
2023/06/08 00:00:17;;;;;;;6.40;3.70;;;;;;;16.07;74.56;99824.20;107578;1254;60437;-40
2023/06/08 00:02:45;;;;;;;5.30;3.90;;;;;;;16.04;74.50;99818.64;107545;1254;73989;-39
2023/06/08 00:05:13;;;;;;;4.90;3.40;;;;;;;16.03;74.69;99813.16;107467;1258;67069;-40
2023/06/08 00:07:41;;;;;;;7.70;3.90;;;;;;;16.06;74.89;99810.36;107508;1254;73121;-39
2023/06/08 00:10:09;;;;;;;5.70;3.70;;;;;;;16.06;74.96;99809.04;107486;1254;60527;-40
2023/06/08 00:12:37;;;;;;;6.30;3.30;;;;;;;16.03;75.05;99807.30;107592;1254;60409;-40
2023/06/08 00:15:07;;;;;;;5.60;3.70;;;;;;;16.02;74.94;99803.86;107496;1253;74276;-39
2023/06/08 00:17:34;;;;;;;5.60;3.70;;;;;;;16.05;75.16;99805.52;107575;1254;65917;-40
2023/06/08 00:20:08;;;;;;;5.90;3.60;;;;;;;16.05;74.93;99799.11;107501;1257;72723;-39
2023/06/08 00:22:36;;;;;;;6.90;3.50;;;;;;;16.04;74.87;99800.58;107589;1253;60540;-39
2023/06/08 00:25:05;;;;;;;8.20;4.00;;;;;;;16.03;74.89;99801.51;107472;1256;60316;-40
2023/06/08 00:27:34;;;;;;;5.00;3.50;;;;;;;16.04;74.73;99801.99;107484;1254;72607;-41
2023/06/08 00:30:02;;;;;;;5.50;3.60;;;;;;;16.05;74.77;99800.74;107524;1254;66317;-40
2023/06/08 00:32:30;;;;;;;4.80;3.20;;;;;;;16.03;74.74;99799.80;107441;1254;72685;-39
2023/06/08 00:34:58;;;;;;;6.50;3.30;;;;;;;16.02;74.91;99801.60;107611;1254;60420;-39
2023/06/08 00:37:26;;;;;;;7.40;3.60;;;;;;;16.05;74.89;99798.24;107501;1254;60312;-40
2023/06/08 00:39:54;;;;;;;6.10;3.60;;;;;;;16.08;74.60;99799.44;107521;1253;72600;-39
2023/06/08 00:42:21;;;;;;;4.30;3.30;;;;;;;16.09;74.47;99797.94;107497;1254;65811;-39
2023/06/08 00:44:49;;;;;;;4.90;3.30;;;;;;;16.09;74.39;99799.12;107414;1253;72697;-39
2023/06/08 00:47:17;;;;;;;5.60;3.50;;;;;;;16.11;74.14;99797.48;107466;1254;61707;-40
2023/06/08 00:49:45;;;;;;;4.10;3.20;;;;;;;16.17;73.66;99796.72;107384;1254;59652;-40
2023/06/08 00:52:15;;;;;;;4.50;3.20;;;;;;;16.19;73.68;99797.98;107566;1254;72666;-40
2023/06/08 00:54:48;;;;;;;4.00;3.30;;;;;;;16.19;73.42;99798.60;107477;1253;67922;-39
2023/06/08 00:57:18;;;;;;;6.30;3.50;;;;;;;16.17;73.46;99796.58;107391;1259;72701;-40
2023/06/08 00:59:49;;;;;;;6.80;3.10;;;;;;;16.20;73.42;99798.06;107368;1254;61732;-40
2023/06/08 01:02:17;;;;;;;5.20;3.40;;;;;;;16.26;73.23;99796.81;107335;1254;60969;-40
2023/06/08 01:04:45;;;;;;;4.50;3.40;;;;;;;16.28;72.97;99796.61;107519;1254;73861;-40
2023/06/08 01:07:14;;;;;;;5.20;3.80;;;;;;;16.28;72.62;99796.59;107517;1256;67699;-39
2023/06/08 01:09:52;;;;;;;6.10;3.10;;;;;;;16.27;72.47;99797.30;107559;1254;71397;-40
2023/06/08 01:12:28;;;;;;;3.50;2.90;;;;;;;16.29;72.29;99800.05;107388;1256;61672;-40
2023/06/08 01:15:13;;;;;;;3.90;3.20;;;;;;;16.35;72.24;99804.27;107489;1254;60591;-40
2023/06/08 01:17:44;;;;;;;6.40;3.80;;;;;;;16.38;71.92;99802.48;107505;1254;73918;-39
2023/06/08 01:20:48;;;;;;;4.20;3.30;;;;;;;16.35;72.09;99802.73;107495;1254;66625;-40
2023/06/08 01:23:37;;;;;;;5.90;3.60;;;;;;;16.32;72.49;99796.52;107465;1254;70375;-39
2023/06/08 01:26:05;;;;;;;5.00;3.50;;;;;;;16.32;72.94;99794.82;107500;1254;60457;-40
2023/06/08 01:28:34;;;;;;;5.50;3.70;;;;;;;16.27;73.43;99791.20;107398;1254;60333;-40
2023/06/08 01:31:03;;;;;;;7.00;3.80;;;;;;;16.25;73.85;99794.65;107485;1254;72878;-39
2023/06/08 01:33:31;;;;;;;6.80;3.70;;;;;;;16.24;74.02;99795.10;107501;1253;67602;-40
2023/06/08 01:36:06;;;;;;;6.20;4.00;;;;;;;16.24;74.29;99793.30;107494;1254;71046;-39
2023/06/08 01:38:37;;;;;;;5.10;4.30;;;;;;;16.23;74.50;99791.02;107390;1254;60130;-39
2023/06/08 01:41:07;;;;;;;5.70;4.00;;;;;;;16.20;74.80;99792.29;107370;1254;60364;-40
2023/06/08 01:43:35;;;;;;;6.70;3.90;;;;;;;16.21;75.11;99792.13;107487;1254;73187;-41
2023/06/08 01:46:02;;;;;;;4.60;3.90;;;;;;;16.23;75.36;99790.25;107518;1254;67869;-41
2023/06/08 01:48:30;;;;;;;5.50;4.30;;;;;;;16.23;75.46;99798.14;107378;1258;72686;-40
2023/06/08 01:50:58;;;;;;;4.90;4.00;;;;;;;16.22;75.49;99795.40;107486;1254;60395;-40
2023/06/08 01:53:25;;;;;;;10.80;4.30;;;;;;;16.24;75.75;99797.68;107502;1254;60431;-40
2023/06/08 01:55:53;;;;;;;5.90;4.20;;;;;;;16.27;75.69;99795.20;107334;1254;74141;-40
2023/06/08 01:58:21;;;;;;;6.00;4.30;;;;;;;16.27;75.78;99799.65;107468;1254;66627;-41
2023/06/08 02:00:48;;;;;;;4.40;4.00;;;;;;;16.25;76.02;99798.31;107337;1254;72697;-41
2023/06/08 02:03:16;;;;;;;5.50;3.70;;;;;;;16.26;76.17;99799.17;107449;1254;61744;-40
2023/06/08 02:05:44;;;;;;;4.70;4.00;;;;;;;16.30;76.28;99796.98;107516;1254;60575;-40
2023/06/08 02:08:11;;;;;;;6.30;4.60;;;;;;;16.32;76.52;99800.45;107546;1254;73987;-41
2023/06/08 02:10:39;;;;;;;9.40;3.90;;;;;;;16.32;76.89;99803.34;107493;1259;68223;-41
2023/06/08 02:13:07;;;;;;;5.70;4.40;;;;;;;16.35;77.25;99801.85;107492;1254;72666;-41
2023/06/08 02:15:35;;;;;;;5.90;3.70;;;;;;;16.40;77.51;99803.67;107523;1258;60484;-41
2023/06/08 02:18:05;;;;;;;5.30;3.40;;;;;;;16.44;77.76;99800.00;107619;1254;59662;-40
2023/06/08 02:20:34;;;;;;;;;;;;;;;16.43;77.89;99801.02;107509;1254;73881;-40
2023/06/08 02:23:02;;;;;;;4.50;3.40;;;;;;;16.42;78.06;99800.15;107550;1254;67649;-41
2023/06/08 02:25:30;;;;;;;7.20;3.80;;;;;;;16.44;77.90;99796.26;107520;1254;71932;-41
2023/06/08 02:27:58;;;;;;;6.30;4.10;;;;;;;16.48;77.73;99794.69;107369;1253;216738;-40
2023/06/08 02:31:18;;;;;;;6.10;4.00;;;;;;;16.53;77.42;99797.77;104224;1292;600974;-39
2023/06/08 02:33:46;;;;;;;6.10;3.90;;;;;;;16.54;77.03;99799.63;106610;1267;61687;-39
2023/06/08 02:36:14;;;;;;;4.60;3.80;;;;;;;16.61;76.56;99801.55;106662;1267;59245;-39
2023/06/08 02:38:42;;;;;;;6.70;4.10;;;;;;;16.60;76.18;99801.08;106531;1267;72210;-40
2023/06/08 02:41:11;;;;;;;4.40;4.00;;;;;;;16.58;76.07;99795.67;106695;1267;66603;-39
2023/06/08 02:43:40;;;;;;;7.50;4.10;;;;;;;16.57;76.07;99798.55;106630;1267;72647;-39
2023/06/08 02:46:09;;;;;;;5.30;3.60;;;;;;;16.60;75.43;99796.45;106597;1267;168818;-39
2023/06/08 02:48:38;;;;;;;5.50;4.10;;;;;;;16.61;75.19;99794.67;106804;1269;59153;-40
2023/06/08 02:51:06;;;;;;;7.20;4.10;;;;;;;16.59;74.91;99791.08;106752;1264;72262;-40
2023/06/08 02:53:35;;;;;;;5.20;3.60;;;;;;;16.56;74.78;99792.42;106837;1264;66629;-40
2023/06/08 02:56:03;;;;;;;5.80;4.10;;;;;;;16.58;74.62;99794.35;106813;1263;72729;-40
2023/06/08 02:58:33;;;;;;;7.60;4.00;;;;;;;16.60;74.63;99796.61;106817;1267;59854;-40
2023/06/08 03:01:01;;;;;;;6.40;4.40;;;;;;;16.60;74.42;99798.57;106811;1266;59612;-39
2023/06/08 03:03:45;;;;;;;5.50;4.00;;;;;;;16.57;74.57;99804.73;106837;1263;71738;-40
2023/06/08 03:06:18;;;;;;;5.00;4.10;;;;;;;16.57;74.75;99801.45;106802;1263;66813;-40
2023/06/08 03:08:53;;;;;;;6.90;3.90;;;;;;;16.59;74.65;99804.67;106875;1263;71733;-40
2023/06/08 03:11:22;;;;;;;6.90;4.10;;;;;;;16.59;74.67;99804.52;106821;1263;59686;-39
2023/06/08 03:13:50;;;;;;;4.90;3.80;;;;;;;16.58;74.65;99809.27;106845;1264;59576;-40
2023/06/08 03:16:20;;;;;;;6.00;4.10;;;;;;;16.58;74.61;99807.88;106858;1263;71754;-40
2023/06/08 03:18:48;;;;;;;5.40;4.10;;;;;;;16.60;74.70;99808.35;106867;1263;66619;-40
2023/06/08 03:21:18;;;;;;;6.40;4.40;;;;;;;16.59;75.02;99804.45;106714;1265;72664;-40
2023/06/08 03:23:48;;;;;;;5.30;4.30;;;;;;;16.56;75.03;99802.05;106878;1262;59586;-39
2023/06/08 03:26:17;;;;;;;7.20;4.10;;;;;;;16.54;75.18;99806.91;106895;1267;59218;-39
2023/06/08 03:28:45;;;;;;;8.60;4.00;;;;;;;16.58;74.92;99812.72;106881;1262;73015;-40
2023/06/08 03:31:14;;;;;;;7.80;4.10;;;;;;;16.60;75.03;99814.45;106763;1262;67908;-40
2023/06/08 03:33:45;;;;;;;5.70;4.20;;;;;;;16.60;75.02;99820.80;106852;1262;71089;-40
2023/06/08 03:36:13;;;;;;;6.50;3.70;;;;;;;16.60;75.31;99822.12;106851;1262;61045;-39
2023/06/08 03:38:44;;;;;;;4.90;3.60;;;;;;;16.64;75.12;99821.58;106818;1262;59494;-40
2023/06/08 03:41:13;;;;;;;6.40;4.20;;;;;;;16.70;75.36;99823.86;106865;1262;71770;-40
2023/06/08 03:43:41;;;;;;;5.20;3.80;;;;;;;16.75;75.69;99826.45;106877;1262;67173;-40
2023/06/08 03:46:09;;;;;;;6.20;3.60;;;;;;;16.79;75.55;99825.89;106851;1263;71932;-40
2023/06/08 03:48:37;;;;;;;6.70;4.30;;;;;;;16.80;75.22;99825.35;106838;1262;60412;-39
2023/06/08 03:51:05;;;;;;;9.20;4.00;;;;;;;16.85;75.22;99824.34;106907;1267;59341;-40
2023/06/08 03:53:34;;;;;;;5.60;4.30;;;;;;;16.96;75.10;99824.27;106854;1262;71785;-40
2023/06/08 03:56:02;;;;;;;6.20;4.40;;;;;;;17.02;74.87;99825.45;106872;1266;66603;-39
2023/06/08 03:58:32;;;;;;;5.90;4.10;;;;;;;17.03;74.56;99830.15;106896;1263;71473;-39
2023/06/08 04:01:00;;;;;;;7.30;4.10;;;;;;;17.02;74.57;99829.13;106842;1263;61688;-39
2023/06/08 04:03:29;;;;;;;5.70;4.00;;;;;;;17.02;74.25;99827.80;106886;1262;58925;-40
2023/06/08 04:05:58;;;;;;;6.30;4.20;;;;;;;17.03;74.20;99824.52;107117;1257;73049;-39
2023/06/08 04:08:26;;;;;;;5.10;4.10;;;;;;;17.01;73.89;99824.81;107080;1259;67618;-40
2023/06/08 04:10:54;;;;;;;4.70;4.20;;;;;;;16.97;73.98;99823.27;107085;1259;72708;-39
2023/06/08 04:13:22;;;;;;;5.50;4.00;;;;;;;16.91;74.07;99821.52;107043;1262;61665;-40
2023/06/08 04:15:50;;;;;;;4.90;4.10;;;;;;;16.90;73.70;99823.25;107037;1258;60069;-40
2023/06/08 04:18:18;;;;;;;8.00;3.80;;;;;;;16.91;73.69;99824.03;107234;1257;73131;-39
2023/06/08 04:20:45;;;;;;;5.50;4.60;;;;;;;16.89;73.66;99829.12;107061;1261;67897;-40
2023/06/08 04:23:15;;;;;;;4.70;4.20;;;;;;;16.86;73.46;99836.30;107223;1260;71419;-40
2023/06/08 04:25:43;;;;;;;5.70;4.20;;;;;;;16.84;73.95;99845.23;107207;1260;60380;-39
2023/06/08 04:28:12;;;;;;;7.80;4.00;;;;;;;16.93;74.09;99860.73;107037;1261;59731;-39
2023/06/08 04:30:39;;;;;;;6.30;4.20;;;;;;;17.02;73.80;99871.00;107025;1259;71835;-39
2023/06/08 04:33:07;;;;;;;6.20;4.30;;;;;;;17.06;73.16;99882.73;107054;1263;66352;-40
2023/06/08 04:35:35;;;;;;;6.00;4.20;;;;;;;17.01;72.68;99882.19;107021;1263;71841;-39
2023/06/08 04:38:10;;;;;;;5.30;4.20;;;;;;;16.91;72.83;99886.08;107079;1258;59623;-39
2023/06/08 04:40:38;;;;;;;5.30;4.10;;;;;;;16.85;72.64;99880.66;107135;1259;60043;-40
2023/06/08 04:43:08;;;;;;;8.80;4.10;;;;;;;16.91;72.86;99873.17;107062;1259;73233;-40
2023/06/08 04:45:36;;;;;;;4.90;4.30;;;;;;;17.00;72.98;99858.80;107061;1259;66637;-40
2023/06/08 04:48:05;;;;;;;5.60;4.70;;;;;;;17.02;73.39;99850.96;107049;1263;72658;-40
2023/06/08 04:50:33;;;;;;;7.00;4.70;;;;;;;17.01;73.59;99846.50;107081;1259;59459;-39
2023/06/08 04:53:01;;;;;;;5.40;4.50;;;;;;;16.95;73.69;99845.63;107060;1259;60614;-40
2023/06/08 04:55:31;;;;;;;7.20;4.80;;;;;;;16.94;73.81;99845.95;107077;1257;73064;-40
2023/06/08 04:57:59;;;;;;;5.00;4.20;;;;;;;16.96;74.13;99837.81;107078;1257;67581;-39
2023/06/08 05:00:28;;;;;;;7.40;4.90;;;;;;;16.94;74.03;99832.80;107026;1263;71408;-40
2023/06/08 05:02:56;;;;;;;7.20;4.50;;;;;;;16.92;74.05;99832.64;107078;1258;59489;-40
2023/06/08 05:05:24;;;;;;;7.20;3.90;;;;;;;16.95;74.17;99833.35;107073;1262;59501;-40
2023/06/08 05:07:52;;;;;;;4.90;4.30;;;;;;;17.01;73.89;99831.95;107085;1260;73062;-39
2023/06/08 05:10:20;;;;;;;7.00;4.40;;;;;;;17.04;73.77;99831.79;107231;1259;67844;-40
2023/06/08 05:12:48;;;;;;;6.60;4.40;;;;;;;17.05;73.67;99831.55;107249;1258;72676;-39
2023/06/08 05:15:15;;;;;;;5.70;4.40;;;;;;;17.03;73.78;99830.77;107087;1259;61727;-39
2023/06/08 05:17:43;;;;;;;8.00;4.50;;;;;;;17.05;73.78;99829.28;107071;1259;60075;-39
2023/06/08 05:20:11;;;;;;;5.40;4.50;;;;;;;17.07;73.88;99827.09;107107;1261;73079;-39
2023/06/08 05:22:39;;;;;;;9.40;4.80;;;;;;;17.08;73.98;99830.61;107246;1258;67076;-40
2023/06/08 05:25:08;;;;;;;5.30;4.40;;;;;;;17.08;74.29;99832.19;107212;1257;72770;-39
2023/06/08 05:27:37;;;;;;;6.60;4.50;;;;;;;17.12;74.46;99829.76;107081;1259;60358;-40
2023/06/08 05:30:05;;;;;;;6.90;4.60;;;;;;;17.19;74.51;99830.14;107084;1260;59573;-40
2023/06/08 05:32:33;;;;;;;6.80;5.20;;;;;;;17.22;74.55;99828.18;107274;1260;73048;-39
2023/06/08 05:35:03;;;;;;;8.50;4.90;;;;;;;17.24;74.87;99831.23;107080;1261;67978;-39
2023/06/08 05:37:30;;;;;;;8.20;4.50;;;;;;;17.26;74.87;99827.64;107295;1258;72664;-40
2023/06/08 05:39:58;;;;;;;7.20;4.80;;;;;;;17.32;74.80;99832.64;107059;1258;60222;-39
2023/06/08 05:42:26;;;;;;;6.50;4.90;;;;;;;17.35;75.10;99835.38;107269;1258;60080;-40
2023/06/08 05:44:54;;;;;;;8.40;6.10;;;;;;;17.38;75.03;99836.16;107078;1257;72068;-40
2023/06/08 05:47:22;;;;;;;6.80;4.60;;;;;;;17.40;74.87;99838.90;107096;1259;66774;-40
2023/06/08 05:49:54;;;;;;;5.50;4.90;;;;;;;17.46;74.62;99838.42;107270;1261;71956;-40
2023/06/08 05:52:21;;;;;;;5.70;5.00;;;;;;;17.49;74.45;99841.94;107084;1259;59366;-40
2023/06/08 05:54:50;;;;;;;5.60;4.60;;;;;;;17.52;74.33;99845.84;107212;1259;60420;-40
2023/06/08 05:57:19;;;;;;;7.00;4.90;;;;;;;17.52;74.43;99846.33;107043;1262;73053;-40
2023/06/08 05:59:46;;;;;;;7.80;4.80;;;;;;;17.59;74.36;99847.58;107077;1257;66449;-40
2023/06/08 06:02:14;;;;;;;6.30;4.80;;;;;;;17.68;74.11;99850.55;107218;1258;72692;-40
2023/06/08 06:04:43;;;;;;;9.00;5.50;;;;;;;17.73;73.86;99850.46;107081;1260;60385;-40
2023/06/08 06:07:10;;;;;;;7.00;5.20;;;;;;;17.76;73.74;99848.50;107299;1259;59576;-40
2023/06/08 06:09:38;;;;;;;9.80;5.80;;;;;;;17.81;73.64;99854.43;107187;1258;73032;-40
2023/06/08 06:12:10;;;;;;;8.40;5.80;;;;;;;17.87;73.23;99850.35;107071;1259;66799;-40
2023/06/08 06:14:41;;;;;;;8.00;6.00;;;;;;;17.88;73.20;99853.64;107208;1260;72727;-40
2023/06/08 06:17:08;;;;;;;10.50;6.00;;;;;;;17.90;73.36;99853.09;107143;1257;59539;-40
2023/06/08 06:19:37;;;;;;;6.70;5.50;;;;;;;17.96;73.49;99851.89;107060;1257;59472;-40
2023/06/08 06:22:06;;;;;;;8.90;5.70;;;;;;;18.09;73.16;99854.98;107082;1259;73359;-40
2023/06/08 06:24:34;;;;;;;9.50;5.50;;;;;;;18.18;73.24;99850.00;107244;1259;66417;-40
2023/06/08 06:27:03;;;;;;;8.10;6.00;;;;;;;18.25;72.54;99848.25;107288;1257;72668;-40
2023/06/08 06:29:30;;;;;;;6.30;5.50;;;;;;;18.29;72.35;99847.60;107225;1258;61739;-40
2023/06/08 06:31:58;;;;;;;8.30;5.90;;;;;;;18.35;72.02;99848.91;107268;1257;60044;-40
2023/06/08 06:34:25;;;;;;;7.50;5.50;;;;;;;18.38;72.04;99851.64;107101;1261;71936;-40
2023/06/08 06:36:55;;;;;;;6.70;5.40;;;;;;;18.42;71.89;99855.46;107239;1257;66666;-40
2023/06/08 06:39:22;;;;;;;6.90;5.60;;;;;;;18.49;72.04;99855.90;107030;1260;71791;-40
2023/06/08 06:41:50;;;;;;;7.70;5.20;;;;;;;18.63;71.38;99856.09;107072;1258;60310;-40
2023/06/08 06:44:21;;;;;;;7.20;5.40;;;;;;;18.74;70.54;99856.34;107111;1259;60285;-40
2023/06/08 06:46:48;;;;;;;6.70;5.90;;;;;;;18.79;69.37;99858.42;107253;1257;72636;-40
2023/06/08 06:49:16;;;;;;;7.30;5.40;;;;;;;18.82;68.77;99859.27;107068;1260;66293;-40
2023/06/08 06:51:43;;;;;;;8.50;4.70;;;;;;;18.83;68.62;99860.75;107064;1260;72715;-40
2023/06/08 06:54:12;;;;;;;6.00;4.40;;;;;;;18.88;67.89;99859.45;107086;1258;60432;-40
2023/06/08 06:56:40;;;;;;;8.00;4.50;;;;;;;18.90;66.80;99859.36;107059;1257;60095;-40
2023/06/08 06:59:08;;;;;;;8.90;5.00;;;;;;;18.88;65.92;99860.80;107089;1257;73857;-40
2023/06/08 07:01:36;;;;;;;6.40;4.80;;;;;;;18.82;66.14;99862.48;107060;1259;66301;-39
2023/06/08 07:04:04;;;;;;;6.00;4.60;;;;;;;18.80;66.23;99865.08;107233;1261;72691;-40
2023/06/08 07:06:33;;;;;;;5.00;4.20;;;;;;;18.85;66.22;99870.70;107131;1261;60457;-40
2023/06/08 07:09:00;;;;;;;6.00;4.60;;;;;;;18.91;65.52;99875.30;107103;1257;60435;-40
2023/06/08 07:11:28;;;;;;;10.70;5.10;;;;;;;18.97;65.51;99874.16;107213;1257;73862;-40
2023/06/08 07:13:57;;;;;;;9.00;5.00;;;;;;;19.03;64.63;99878.90;107072;1257;68087;-40
2023/06/08 07:16:24;;;;;;;6.00;4.60;;;;;;;19.08;63.58;99877.68;107078;1260;71791;-40
2023/06/08 07:18:54;;;;;;;6.40;5.20;;;;;;;19.09;63.49;99882.47;107150;1259;60403;-40
2023/06/08 07:21:23;;;;;;;7.20;4.60;;;;;;;19.11;63.80;99884.02;107075;1258;58737;-40
2023/06/08 07:23:58;;;;;;;4.90;4.40;;;;;;;19.19;63.10;99885.77;107071;1262;73864;-40
2023/06/08 07:26:46;;;;;;;6.20;4.00;;;;;;;19.27;62.41;99885.48;107068;1258;66631;-40
2023/06/08 07:29:14;;;;;;;6.00;4.50;;;;;;;19.30;61.98;99879.55;107075;1263;72683;-40
2023/06/08 07:31:41;;;;;;;5.70;4.70;;;;;;;19.36;61.84;99881.40;107037;1263;60074;-40
2023/06/08 07:34:09;;;;;;;6.70;4.80;;;;;;;19.43;61.56;99880.66;107272;1258;60201;-40
2023/06/08 07:36:37;;;;;;;5.70;4.50;;;;;;;19.49;61.15;99876.52;107068;1257;72604;-40
2023/06/08 07:39:05;;;;;;;6.50;4.50;;;;;;;19.59;60.82;99881.70;107183;1258;66645;-40
2023/06/08 07:41:32;;;;;;;5.20;4.50;;;;;;;19.64;60.03;99881.80;107069;1262;71936;-40
2023/06/08 07:44:02;;;;;;;4.90;4.40;;;;;;;19.67;60.15;99879.98;107256;1260;60390;-40
2023/06/08 07:46:31;;;;;;;5.00;4.50;;;;;;;19.69;59.92;99884.03;107100;1257;60397;-40
2023/06/08 07:48:59;;;;;;;7.10;4.40;;;;;;;19.72;59.84;99881.81;107067;1257;73857;-40
2023/06/08 07:51:27;;;;;;;7.70;4.30;;;;;;;19.79;59.74;99884.16;107098;1262;67291;-40
2023/06/08 07:53:55;;;;;;;7.80;4.50;;;;;;;19.85;58.99;99880.10;107101;1261;71473;-40
2023/06/08 07:56:22;;;;;;;7.20;4.60;;;;;;;19.90;58.80;99882.17;107222;1257;60542;-40
2023/06/08 07:58:50;;;;;;;5.70;4.50;;;;;;;19.95;58.74;99882.03;107112;1262;60065;-40
2023/06/08 08:01:18;;;;;;;7.20;4.70;;;;;;;20.01;58.62;99883.95;107206;1258;73809;-40
2023/06/08 08:03:45;;;;;;;6.50;4.80;;;;;;;20.07;58.36;99884.43;107238;1257;67581;-40
2023/06/08 08:06:14;;;;;;;9.30;4.40;;;;;;;20.12;57.64;99883.56;107088;1258;72687;-40
2023/06/08 08:08:41;;;;;;;5.20;4.40;;;;;;;20.18;57.66;99884.69;107104;1257;60463;-40
2023/06/08 08:11:10;;;;;;;5.80;4.10;;;;;;;20.24;56.96;99884.06;107230;1258;60531;-40
2023/06/08 08:13:38;;;;;;;8.80;4.70;;;;;;;20.28;56.06;99883.22;107026;1256;72995;-40
2023/06/08 08:16:06;;;;;;;8.40;4.40;;;;;;;20.29;56.18;99882.73;107105;1262;67614;-40
2023/06/08 08:18:33;;;;;;;7.40;4.40;;;;;;;20.30;56.26;99881.09;107060;1263;72714;-40
2023/06/08 08:21:01;;;;;;;5.70;4.50;;;;;;;20.32;56.43;99880.99;107083;1262;60560;-40
2023/06/08 08:23:29;;;;;;;8.20;4.60;;;;;;;20.35;56.18;99877.35;107085;1263;60288;-40
2023/06/08 08:25:57;;;;;;;6.20;4.90;;;;;;;20.37;56.09;99882.90;107105;1257;73873;-40
2023/06/08 08:28:24;;;;;;;5.90;4.60;;;;;;;20.38;55.62;99885.50;107227;1257;65318;-40
2023/06/08 08:30:52;;;;;;;6.10;4.40;;;;;;;20.36;55.54;99884.66;107251;1262;73146;-40
2023/06/08 08:33:20;;;;;;;5.40;4.50;;;;;;;20.33;56.16;99885.40;107112;1258;60314;-40
2023/06/08 08:35:47;;;;;;;6.20;4.90;;;;;;;20.34;56.34;99880.66;107228;1257;60426;-40
2023/06/08 08:38:15;;;;;;;7.80;5.30;;;;;;;20.33;56.23;99880.36;107207;1262;73073;-40
2023/06/08 08:40:43;;;;;;;8.00;5.10;;;;;;;20.33;56.40;99883.19;107107;1257;66765;-40
2023/06/08 08:43:22;;;;;;;8.50;5.70;;;;;;;20.33;56.21;99885.00;107224;1261;71428;-40
2023/06/08 08:45:50;;;;;;;6.40;5.50;;;;;;;20.36;56.62;99880.56;107231;1258;60397;-40
2023/06/08 08:48:19;;;;;;;5.80;5.20;;;;;;;20.39;56.39;99879.51;107122;1263;60428;-40
2023/06/08 08:50:51;;;;;;;7.30;5.40;;;;;;;20.41;56.55;99880.73;107227;1261;72570;-40
2023/06/08 08:53:27;;;;;;;5.80;5.10;;;;;;;20.44;56.45;99882.44;107315;1258;66674;-40
2023/06/08 08:55:55;;;;;;;10.60;6.30;;;;;;;20.48;56.97;99874.42;107263;1260;73176;-40
2023/06/08 08:58:23;;;;;;;8.10;6.20;;;;;;;20.52;56.81;99876.59;107116;1256;60375;-40
2023/06/08 09:00:51;;;;;;;8.90;5.80;;;;;;;20.56;56.49;99874.39;107108;1257;60275;-40
2023/06/08 09:03:19;;;;;;;13.20;6.20;;;;;;;20.60;56.33;99869.48;107129;1259;73897;-40
2023/06/08 09:05:54;;;;;;;10.80;6.40;;;;;;;20.66;56.48;99866.95;107113;1257;67629;-40
2023/06/08 09:08:25;;;;;;;6.40;5.40;;;;;;;20.72;56.27;99866.14;107083;1259;71405;-40
2023/06/08 09:11:06;;;;;;;7.20;5.70;;;;;;;20.79;56.54;99864.63;107117;1258;60300;-40
2023/06/08 09:13:35;;;;;;;7.00;5.90;;;;;;;20.86;56.21;99863.89;107221;1257;60501;-40
2023/06/08 09:16:12;;;;;;;7.90;6.10;;;;;;;20.92;56.79;99861.52;107306;1257;73866;-40
2023/06/08 09:18:41;;;;;;;9.40;5.60;;;;;;;21.02;56.32;99859.64;107140;1257;67583;-40
2023/06/08 09:21:27;;;;;;;8.60;6.10;;;;;;;21.08;56.40;99862.67;107151;1262;72680;-40
2023/06/08 09:24:03;;;;;;;9.40;6.10;;;;;;;21.13;55.96;99860.02;107222;1262;60333;-40
2023/06/08 09:26:36;;;;;;;9.30;5.80;;;;;;;21.13;56.06;99863.27;107207;1263;60310;-40
2023/06/08 09:29:03;;;;;;;6.50;5.80;;;;;;;21.14;56.13;99863.72;107255;1257;73925;-41
2023/06/08 09:31:31;;;;;;;6.70;5.40;;;;;;;21.17;56.15;99861.55;107210;1262;68280;-40
2023/06/08 09:34:06;;;;;;;6.70;5.40;;;;;;;21.19;56.08;99858.35;107092;1261;72726;-40
2023/06/08 09:36:38;;;;;;;9.10;6.00;;;;;;;21.25;56.39;99857.71;107223;1258;60512;-40
2023/06/08 09:39:08;;;;;;;5.80;4.50;;;;;;;21.32;56.05;99855.34;107190;1257;60951;-40
2023/06/08 09:41:38;;;;;;;7.10;5.20;;;;;;;21.39;55.88;99852.98;107255;1257;72608;-40
2023/06/08 09:44:20;;;;;;;8.30;5.90;;;;;;;21.46;55.25;99847.67;107186;1257;68072;-40
2023/06/08 09:46:48;;;;;;;9.10;5.30;;;;;;;21.52;54.52;99845.13;107213;1258;74215;-40
2023/06/08 09:49:16;;;;;;;9.90;4.80;;;;;;;21.56;54.18;99841.80;107176;1257;60550;-40
2023/06/08 09:51:51;;;;;;;6.90;5.10;;;;;;;21.63;54.25;99840.66;107489;1254;60262;-40
2023/06/08 09:54:25;;;;;;;6.70;4.70;;;;;;;21.70;54.22;99839.12;107451;1254;73887;-40
2023/06/08 09:56:54;;;;;;;5.10;4.50;;;;;;;21.74;54.24;99833.36;107470;1254;66422;-41
2023/06/08 09:59:29;;;;;;;6.90;4.60;;;;;;;21.80;53.90;99835.69;107510;1254;72691;-40
2023/06/08 10:02:04;;;;;;;9.30;4.70;;;;;;;21.91;53.84;99835.16;107481;1257;60468;-40
2023/06/08 10:04:38;;;;;;;8.60;4.60;;;;;;;22.04;52.78;99836.83;107517;1258;60329;-41
2023/06/08 10:07:09;;;;;;;7.40;4.60;;;;;;;22.10;52.48;99837.40;107452;1254;74799;-40
2023/06/08 10:09:37;;;;;;;7.40;4.90;;;;;;;22.16;52.39;99834.06;107420;1259;66689;-40
2023/06/08 10:12:09;;;;;;;9.10;4.80;;;;;;;22.18;52.14;99833.52;107343;1254;72817;-40
2023/06/08 10:14:37;;;;;;;5.10;4.60;;;;;;;22.21;52.35;99832.45;107477;1254;61084;-40
2023/06/08 10:17:04;;;;;;;7.00;4.40;;;;;;;22.21;51.62;99835.13;107416;1254;60418;-40
2023/06/08 10:19:32;;;;;;;7.10;4.90;;;;;;;22.25;51.43;99835.05;107298;1254;73870;-40
2023/06/08 10:22:00;;;;;;;5.50;4.50;;;;;;;22.30;51.06;99836.35;107424;1258;66783;-40
2023/06/08 10:24:29;;;;;;;9.80;5.40;;;;;;;22.33;51.21;99835.83;107280;1259;72693;-40
2023/06/08 10:27:09;;;;;;;6.50;4.90;;;;;;;22.35;51.12;99833.17;107463;1254;60430;-40
2023/06/08 10:29:37;;;;;;;5.30;4.60;;;;;;;22.37;50.32;99830.23;107458;1254;60534;-40
2023/06/08 10:32:06;;;;;;;5.90;4.50;;;;;;;22.38;50.63;99823.10;107453;1254;74410;-40
2023/06/08 10:34:40;;;;;;;10.20;5.30;;;;;;;22.40;51.67;99819.73;107325;1254;67726;-41
2023/06/08 10:37:28;;;;;;;6.00;5.10;;;;;;;22.42;51.97;99817.55;107423;1254;72716;-40
2023/06/08 10:39:57;;;;;;;6.50;4.80;;;;;;;22.45;51.69;99815.61;107469;1254;60412;-40
2023/06/08 10:42:25;;;;;;;6.50;5.00;;;;;;;22.45;51.70;99815.27;107514;1254;60126;-41
2023/06/08 10:44:54;;;;;;;7.90;5.10;;;;;;;22.46;50.62;99810.52;107472;1254;73842;-41
2023/06/08 10:47:22;;;;;;;5.90;5.20;;;;;;;22.47;50.29;99808.14;107517;1254;68367;-41
2023/06/08 10:50:16;;;;;;;8.30;5.00;;;;;;;22.48;49.86;99802.50;107458;1258;72739;-40
2023/06/08 10:52:47;;;;;;;6.10;4.90;;;;;;;22.49;50.23;99797.11;107431;1254;60202;-41
2023/06/08 10:55:16;;;;;;;6.20;4.70;;;;;;;22.51;50.63;99802.51;107500;1254;60371;-40
2023/06/08 10:57:52;;;;;;;7.30;5.50;;;;;;;22.52;50.06;99802.71;107487;1254;73960;-41
2023/06/08 11:00:30;;;;;;;6.20;4.70;;;;;;;22.50;50.00;99799.30;107437;1254;66325;-41
2023/06/08 11:03:05;;;;;;;6.80;4.80;;;;;;;22.50;50.72;99801.68;107441;1254;71682;-40
2023/06/08 11:05:34;;;;;;;7.10;5.40;;;;;;;22.54;50.79;99808.77;107426;1253;60362;-40
2023/06/08 11:08:03;;;;;;;6.90;5.30;;;;;;;22.55;50.43;99804.80;107469;1253;60096;-41
2023/06/08 11:10:32;;;;;;;8.00;5.40;;;;;;;22.55;50.04;99807.65;107469;1254;74216;-41
2023/06/08 11:13:05;;;;;;;6.50;4.60;;;;;;;22.55;49.89;99806.91;107455;1255;67612;-41
2023/06/08 11:15:40;;;;;;;7.60;5.30;;;;;;;22.54;49.56;99798.96;107460;1253;72692;-40
2023/06/08 11:18:08;;;;;;;7.90;5.30;;;;;;;22.54;49.48;99799.29;107485;1257;60413;-41
2023/06/08 11:20:37;;;;;;;6.70;5.00;;;;;;;22.53;49.24;99798.67;107488;1254;60310;-40
2023/06/08 11:23:09;;;;;;;8.30;4.80;;;;;;;22.54;49.47;99795.66;107504;1253;73054;-40
2023/06/08 11:25:37;;;;;;;7.90;5.10;;;;;;;22.56;49.96;99795.84;107491;1254;67588;-40
2023/06/08 11:28:07;;;;;;;10.10;5.70;;;;;;;22.58;50.80;99792.40;107473;1254;71440;-40
2023/06/08 11:30:35;;;;;;;;;;;;;;;22.62;50.98;99787.26;107519;1254;60766;-41
2023/06/08 11:33:04;;;;;;;7.50;5.10;;;;;;;22.56;51.68;99788.42;107470;1254;60546;-40
2023/06/08 11:35:33;;;;;;;10.60;4.80;;;;;;;22.58;52.12;99784.67;107461;1254;73290;-41